Missoula, MT

7:11 PM MDT on May 28, 2015 (GMT -0600)
Franklin to the Fort | | Change Station
CLOSE
Current Station
Personal Weather Station
Location: Missoula, MT
Elevation: 3200 ft
Nearby Weather Stations

Elev 3200 ft 46.86 °N, 114.02 °W | Updated 8 seconds ago

Overcast
Overcast
69.0 °F
Feels Like 69.0 °F
N
5.0
Wind Variable Wind from East
Gusts 8.0 mph

Today
High -- | Low -- °F
--% Chance of Precip.
Yesterday
High -- | Low -- °F
Precip. -- in
5:48 AM 9:19 PM
Waxing Gibbous, 80% visible
Pressure 30.14 in
Visibility 10.0 miles
Clouds Few 11000 ft
Dew Point 48 °F
Humidity 48%
Rainfall 0.07 in
Snow Depth Not available.
UV 2 out of 12
Pollen 6.30 out of 12
Air Quality Not available.
Flu Activity Sporadic
METAR KMSO 290053Z 00000KT 10SM FEW110 18/11 A3015 RMK AO2 RAE14 SLP205 P0000 T01780106

More Conditions Fewer Conditions

Pressure 30.14 in
Visibility 10.0 miles
Clouds Few 11000 ft
Dew Point 48 °F
Humidity 48%
Rainfall 0.07 in
Snow Depth Not available.
UV 2 out of 12
Pollen 6.30 out of 12
Air Quality Not available.
Flu Activity Sporadic
METAR KMSO 290053Z 00000KT 10SM FEW110 18/11 A3015 RMK AO2 RAE14 SLP205 P0000 T01780106

More Conditions Fewer Conditions

10-Day Weather Forecast

Almanac

Astronomy

May. 28, 2015 Rise Set
Actual Time
Civil Twilight
Nautical Twilight
Astronomical Twilight
Moon
Length of Visible Light
Length of Day
Tomorrow will be .
, % of the Moon is Illuminated

Today's Extremes

State Highs State Lows

Community

WunderPhotos

Upload Photos

1,825,106 photos uploaded!

WunderBlogs® & News

Nearby

Air Quality

  Air Quality AQ Index Pollutant
Not available.

Snow Depth

Station Depth Elevation

Earthquake Activity

City Distance Mag. Time & Date
Minimum magnitude displayed is 2.5.

Coastal Water Temperatures

Place Temperature

Stations

Nearby Weather Stations

Station Location Temp. Windchill Dew Point Humidity Wind Precip. Elev Updated Type